This is the latest recevied weather packets stored in our database for station/object BMCB-11. If no packets are shown the sender has not sent any weather packets the latest 10 day(s).
| Time | Temp. | Humidity | Pressure | Rain* | Wind** | Luminosity | Snow |
|---|---|---|---|---|---|---|---|
| 1777839623 | 13.33° C | 98% | 1012.5 hPa | 0 mm | - | 0 W/m² | - |
| 1777837822 | 13.33° C | 98% | 1012.5 hPa | 0 mm | - | 0 W/m² | - |
| 1777836648 | 13.33° C | 99% | 1012.3 hPa | 0 mm | - | 0 W/m² | - |
| 1777833648 | 13.89° C | 98% | 1011.8 hPa | 0 mm | - | 26 W/m² | - |
| 1777828836 | 13.89° C | 99% | 1011.8 hPa | 7.11 mm | - | 184 W/m² | - |
| 1777824036 | 15° C | 95% | 1011.5 hPa | 1.52 mm | - | 22 W/m² | - |
| 1777823446 | 14.44° C | 95% | 1011.5 hPa | 1.52 mm | - | 22 W/m² | - |
| 1777821640 | 15.56° C | 93% | 1011.5 hPa | 0.51 mm | - | 160 W/m² | - |
| 1777821046 | 15° C | 93% | 1011.6 hPa | 0.25 mm | - | 144 W/m² | - |
| 1777819245 | 16.67° C | 85% | 1011.6 hPa | 0 mm | - | 132 W/m² | - |
| 1777815044 | 16.11° C | 87% | 1011.9 hPa | 0 mm | - | 188 W/m² | - |
| 1777808443 | 15° C | 91% | 1012.5 hPa | 0.25 mm | - | 286 W/m² | - |
| 1777807848 | 15° C | 91% | 1012.5 hPa | 0.25 mm | - | 210 W/m² | - |
| 1777804254 | 14.44° C | 92% | 1012.4 hPa | 0.51 mm | - | 172 W/m² | - |
| 1777803646 | 14.44° C | 92% | 1012.4 hPa | 0.51 mm | - | 232 W/m² | - |
| 1777799445 | 14.44° C | 96% | 1012.6 hPa | 0.51 mm | - | 102 W/m² | - |
| 1777797015 | 13.89° C | 96% | 1012.6 hPa | 0.76 mm | - | 96 W/m² | - |
| 1777792215 | 14.44° C | 93% | 1012.4 hPa | 0.25 mm | - | 82 W/m² | - |
| 1777791615 | 14.44° C | 93% | 1012.3 hPa | 0.25 mm | - | 42 W/m² | - |
| 1777788615 | 14.44° C | 90% | 1012 hPa | 0 mm | - | 20 W/m² | - |
| 1777780816 | 13.89° C | 93% | 1012.1 hPa | 0 mm | - | 0 W/m² | - |
| 1777779616 | 13.89° C | 92% | 1012.2 hPa | 0 mm | - | 0 W/m² | - |
| 1777773017 | 13.89° C | 94% | 1012.9 hPa | 0 mm | - | 0 W/m² | - |
| 1777768222 | 13.89° C | 95% | 1013.3 hPa | 0 mm | - | 0 W/m² | - |
| 1777767021 | 13.89° C | 96% | 1013.5 hPa | 0 mm | - | 0 W/m² | - |
* Rain latest hour (hover to see other rain measurements)
** Current wind speed in m/s (hover to see current wind gust speed)